sensor_id;sensor_type;location;lat;lon;timestamp;P1;durP1;ratioP1;P2;durP2;ratioP2
7883;SDS011;3987;51.458;7.238;2023-06-14T00:11:11;8.33;;;7.77;;
7883;SDS011;3987;51.458;7.238;2023-06-14T00:26:11;7.57;;;7.07;;
7883;SDS011;3987;51.458;7.238;2023-06-14T00:41:13;6.80;;;6.40;;
7883;SDS011;3987;51.458;7.238;2023-06-14T00:56:16;6.70;;;6.50;;
7883;SDS011;3987;51.458;7.238;2023-06-14T01:11:18;6.53;;;6.03;;
7883;SDS011;3987;51.458;7.238;2023-06-14T01:26:22;6.70;;;6.30;;
7883;SDS011;3987;51.458;7.238;2023-06-14T01:41:25;6.13;;;5.83;;
7883;SDS011;3987;51.458;7.238;2023-06-14T01:56:26;5.83;;;5.60;;
7883;SDS011;3987;51.458;7.238;2023-06-14T02:11:27;6.23;;;5.73;;
7883;SDS011;3987;51.458;7.238;2023-06-14T02:26:28;5.23;;;5.13;;
7883;SDS011;3987;51.458;7.238;2023-06-14T02:41:30;6.83;;;5.90;;
7883;SDS011;3987;51.458;7.238;2023-06-14T02:56:30;5.87;;;5.13;;
7883;SDS011;3987;51.458;7.238;2023-06-14T03:11:31;6.23;;;5.73;;
7883;SDS011;3987;51.458;7.238;2023-06-14T03:26:32;5.93;;;5.63;;
7883;SDS011;3987;51.458;7.238;2023-06-14T03:41:34;5.60;;;5.30;;
7883;SDS011;3987;51.458;7.238;2023-06-14T03:56:35;5.57;;;5.27;;
7883;SDS011;3987;51.458;7.238;2023-06-14T04:11:37;5.13;;;4.83;;
7883;SDS011;3987;51.458;7.238;2023-06-14T04:26:38;4.90;;;4.60;;
7883;SDS011;3987;51.458;7.238;2023-06-14T04:41:40;3.97;;;3.77;;
7883;SDS011;3987;51.458;7.238;2023-06-14T04:56:42;3.97;;;3.70;;
7883;SDS011;3987;51.458;7.238;2023-06-14T05:11:44;3.87;;;3.40;;
7883;SDS011;3987;51.458;7.238;2023-06-14T05:26:46;3.30;;;3.10;;
7883;SDS011;3987;51.458;7.238;2023-06-14T05:41:46;3.80;;;3.70;;
7883;SDS011;3987;51.458;7.238;2023-06-14T05:56:47;7.70;;;2.90;;
7883;SDS011;3987;51.458;7.238;2023-06-14T06:11:47;3.23;;;3.00;;
7883;SDS011;3987;51.458;7.238;2023-06-14T06:26:48;2.50;;;2.20;;
7883;SDS011;3987;51.458;7.238;2023-06-14T06:41:48;2.47;;;2.27;;
7883;SDS011;3987;51.458;7.238;2023-06-14T06:56:59;2.17;;;2.07;;
7883;SDS011;3987;51.458;7.238;2023-06-14T07:12:01;2.23;;;2.13;;
7883;SDS011;3987;51.458;7.238;2023-06-14T07:27:02;1.37;;;1.33;;
7883;SDS011;3987;51.458;7.238;2023-06-14T07:42:04;6.17;;;1.73;;
7883;SDS011;3987;51.458;7.238;2023-06-14T07:57:05;2.67;;;1.60;;
7883;SDS011;3987;51.458;7.238;2023-06-14T08:12:06;8.07;;;2.27;;
7883;SDS011;3987;51.458;7.238;2023-06-14T08:27:09;2.93;;;1.73;;
7883;SDS011;3987;51.458;7.238;2023-06-14T08:42:10;1.77;;;1.77;;
7883;SDS011;3987;51.458;7.238;2023-06-14T08:57:11;3.90;;;1.17;;
7883;SDS011;3987;51.458;7.238;2023-06-14T09:12:15;5.70;;;1.27;;
7883;SDS011;3987;51.458;7.238;2023-06-14T09:27:16;3.57;;;1.07;;
7883;SDS011;3987;51.458;7.238;2023-06-14T09:42:16;1.70;;;0.60;;
7883;SDS011;3987;51.458;7.238;2023-06-14T09:57:21;0.60;;;0.60;;
7883;SDS011;3987;51.458;7.238;2023-06-14T10:12:22;1.00;;;1.00;;
7883;SDS011;3987;51.458;7.238;2023-06-14T10:27:23;3.03;;;1.20;;
7883;SDS011;3987;51.458;7.238;2023-06-14T10:42:50;1.20;;;1.00;;
7883;SDS011;3987;51.458;7.238;2023-06-14T10:57:54;2.43;;;0.90;;
7883;SDS011;3987;51.458;7.238;2023-06-14T11:12:58;0.80;;;0.80;;
7883;SDS011;3987;51.458;7.238;2023-06-14T11:27:59;1.57;;;0.90;;
7883;SDS011;3987;51.458;7.238;2023-06-14T11:43:01;5.63;;;1.60;;
7883;SDS011;3987;51.458;7.238;2023-06-14T11:58:02;4.03;;;1.67;;
7883;SDS011;3987;51.458;7.238;2023-06-14T12:13:03;1.60;;;1.50;;
7883;SDS011;3987;51.458;7.238;2023-06-14T12:28:05;2.13;;;1.40;;
7883;SDS011;3987;51.458;7.238;2023-06-14T12:43:06;2.53;;;1.30;;
7883;SDS011;3987;51.458;7.238;2023-06-14T12:58:06;2.27;;;1.60;;
7883;SDS011;3987;51.458;7.238;2023-06-14T13:13:07;2.33;;;1.73;;
7883;SDS011;3987;51.458;7.238;2023-06-14T13:28:08;1.33;;;1.30;;
7883;SDS011;3987;51.458;7.238;2023-06-14T13:43:09;2.35;;;1.65;;
7883;SDS011;3987;51.458;7.238;2023-06-14T13:58:10;1.20;;;1.20;;
7883;SDS011;3987;51.458;7.238;2023-06-14T14:13:10;1.77;;;1.67;;
7883;SDS011;3987;51.458;7.238;2023-06-14T14:28:12;1.57;;;1.50;;
7883;SDS011;3987;51.458;7.238;2023-06-14T14:43:15;1.80;;;1.73;;
7883;SDS011;3987;51.458;7.238;2023-06-14T14:58:16;1.90;;;1.80;;
7883;SDS011;3987;51.458;7.238;2023-06-14T15:13:18;2.10;;;2.10;;
7883;SDS011;3987;51.458;7.238;2023-06-14T15:28:18;3.05;;;2.08;;
7883;SDS011;3987;51.458;7.238;2023-06-14T15:43:19;1.97;;;1.87;;
7883;SDS011;3987;51.458;7.238;2023-06-14T15:58:20;1.90;;;1.80;;
7883;SDS011;3987;51.458;7.238;2023-06-14T16:13:20;2.77;;;2.33;;
7883;SDS011;3987;51.458;7.238;2023-06-14T16:28:20;1.73;;;1.73;;
7883;SDS011;3987;51.458;7.238;2023-06-14T16:43:21;1.90;;;1.80;;
7883;SDS011;3987;51.458;7.238;2023-06-14T16:58:21;1.70;;;1.70;;
7883;SDS011;3987;51.458;7.238;2023-06-14T17:13:22;2.20;;;1.80;;
7883;SDS011;3987;51.458;7.238;2023-06-14T17:28:22;1.63;;;1.53;;
7883;SDS011;3987;51.458;7.238;2023-06-14T17:43:24;1.60;;;1.60;;
7883;SDS011;3987;51.458;7.238;2023-06-14T17:58:25;3.13;;;2.33;;
7883;SDS011;3987;51.458;7.238;2023-06-14T18:13:25;1.77;;;1.53;;
7883;SDS011;3987;51.458;7.238;2023-06-14T18:28:25;1.53;;;1.53;;
7883;SDS011;3987;51.458;7.238;2023-06-14T18:43:26;2.67;;;1.67;;
7883;SDS011;3987;51.458;7.238;2023-06-14T18:58:27;1.90;;;1.80;;
7883;SDS011;3987;51.458;7.238;2023-06-14T19:13:28;1.73;;;1.17;;
7883;SDS011;3987;51.458;7.238;2023-06-14T19:28:28;1.83;;;1.73;;
7883;SDS011;3987;51.458;7.238;2023-06-14T19:43:29;1.90;;;1.53;;
7883;SDS011;3987;51.458;7.238;2023-06-14T19:58:29;1.83;;;1.73;;
7883;SDS011;3987;51.458;7.238;2023-06-14T20:13:30;2.03;;;1.80;;
7883;SDS011;3987;51.458;7.238;2023-06-14T20:28:30;2.13;;;2.00;;
7883;SDS011;3987;51.458;7.238;2023-06-14T20:43:31;2.20;;;2.10;;
7883;SDS011;3987;51.458;7.238;2023-06-14T20:58:32;1.53;;;1.53;;
7883;SDS011;3987;51.458;7.238;2023-06-14T21:13:32;2.00;;;2.00;;
7883;SDS011;3987;51.458;7.238;2023-06-14T21:28:32;2.53;;;2.43;;
7883;SDS011;3987;51.458;7.238;2023-06-14T21:43:33;2.90;;;2.80;;
7883;SDS011;3987;51.458;7.238;2023-06-14T21:58:33;2.90;;;2.90;;
7883;SDS011;3987;51.458;7.238;2023-06-14T22:13:34;2.93;;;2.93;;
7883;SDS011;3987;51.458;7.238;2023-06-14T22:28:35;2.73;;;2.73;;
7883;SDS011;3987;51.458;7.238;2023-06-14T22:43:39;3.20;;;2.90;;
7883;SDS011;3987;51.458;7.238;2023-06-14T22:58:42;3.83;;;3.50;;
7883;SDS011;3987;51.458;7.238;2023-06-14T23:13:44;3.53;;;3.33;;
7883;SDS011;3987;51.458;7.238;2023-06-14T23:28:48;3.57;;;3.47;;
7883;SDS011;3987;51.458;7.238;2023-06-14T23:43:53;4.50;;;4.20;;
7883;SDS011;3987;51.458;7.238;2023-06-14T23:58:54;4.00;;;3.80;;
